sensor_id;sensor_type;location;lat;lon;timestamp;pressure;altitude;pressure_sealevel;temperature;humidity
80585;BME280;70137;56.482;9.154;2023-12-20T00:01:19;100224.03;;;3.35;100.00
80585;BME280;70137;56.482;9.154;2023-12-20T00:03:44;100213.78;;;3.35;100.00
80585;BME280;70137;56.482;9.154;2023-12-20T00:06:10;100215.69;;;3.33;100.00
80585;BME280;70137;56.482;9.154;2023-12-20T00:08:36;100208.13;;;3.31;100.00
80585;BME280;70137;56.482;9.154;2023-12-20T00:11:01;100198.84;;;3.40;100.00
80585;BME280;70137;56.482;9.154;2023-12-20T00:13:26;100185.00;;;3.52;100.00
80585;BME280;70137;56.482;9.154;2023-12-20T00:15:52;100174.91;;;3.60;100.00
80585;BME280;70137;56.482;9.154;2023-12-20T00:18:17;100173.16;;;3.70;100.00
80585;BME280;70137;56.482;9.154;2023-12-20T00:20:42;100177.34;;;3.81;100.00
80585;BME280;70137;56.482;9.154;2023-12-20T00:23:08;100176.94;;;3.86;100.00
80585;BME280;70137;56.482;9.154;2023-12-20T00:25:34;100177.38;;;3.91;100.00
80585;BME280;70137;56.482;9.154;2023-12-20T00:28:00;100167.78;;;3.93;100.00
80585;BME280;70137;56.482;9.154;2023-12-20T00:30:25;100169.97;;;3.97;100.00
80585;BME280;70137;56.482;9.154;2023-12-20T00:32:50;100168.88;;;4.00;100.00
80585;BME280;70137;56.482;9.154;2023-12-20T00:35:16;100161.84;;;4.02;100.00
80585;BME280;70137;56.482;9.154;2023-12-20T00:37:45;100157.66;;;4.01;100.00
80585;BME280;70137;56.482;9.154;2023-12-20T00:40:10;100153.34;;;4.01;100.00
80585;BME280;70137;56.482;9.154;2023-12-20T00:42:36;100146.47;;;4.02;100.00
80585;BME280;70137;56.482;9.154;2023-12-20T00:45:01;100140.38;;;4.03;100.00
80585;BME280;70137;56.482;9.154;2023-12-20T00:47:27;100140.38;;;4.03;100.00
80585;BME280;70137;56.482;9.154;2023-12-20T00:49:52;100125.94;;;4.02;100.00
80585;BME280;70137;56.482;9.154;2023-12-20T00:52:18;100131.06;;;4.02;100.00
80585;BME280;70137;56.482;9.154;2023-12-20T00:54:44;100125.13;;;4.01;100.00
80585;BME280;70137;56.482;9.154;2023-12-20T00:57:09;100121.91;;;3.99;100.00
80585;BME280;70137;56.482;9.154;2023-12-20T00:59:35;100119.47;;;3.98;100.00
80585;BME280;70137;56.482;9.154;2023-12-20T01:02:00;100119.19;;;4.01;100.00
80585;BME280;70137;56.482;9.154;2023-12-20T01:04:26;100128.22;;;4.05;100.00
80585;BME280;70137;56.482;9.154;2023-12-20T01:06:51;100133.78;;;4.10;100.00
80585;BME280;70137;56.482;9.154;2023-12-20T01:09:17;100107.84;;;4.13;100.00
80585;BME280;70137;56.482;9.154;2023-12-20T01:11:43;100099.09;;;4.16;100.00
80585;BME280;70137;56.482;9.154;2023-12-20T01:14:09;100098.28;;;4.15;100.00
80585;BME280;70137;56.482;9.154;2023-12-20T01:16:34;100088.94;;;4.14;100.00
80585;BME280;70137;56.482;9.154;2023-12-20T01:18:59;100083.94;;;4.13;100.00
80585;BME280;70137;56.482;9.154;2023-12-20T01:21:25;100076.91;;;4.15;100.00
80585;BME280;70137;56.482;9.154;2023-12-20T01:23:50;100071.13;;;4.13;100.00
80585;BME280;70137;56.482;9.154;2023-12-20T01:26:16;100065.19;;;4.12;100.00
80585;BME280;70137;56.482;9.154;2023-12-20T01:28:42;100057.50;;;4.12;100.00
80585;BME280;70137;56.482;9.154;2023-12-20T01:31:07;100064.38;;;4.12;100.00
80585;BME280;70137;56.482;9.154;2023-12-20T01:33:32;100066.78;;;4.13;100.00
80585;BME280;70137;56.482;9.154;2023-12-20T01:35:57;100045.47;;;4.13;99.79
80585;BME280;70137;56.482;9.154;2023-12-20T01:38:23;100053.03;;;4.14;100.00
80585;BME280;70137;56.482;9.154;2023-12-20T01:40:48;100054.13;;;4.12;100.00
80585;BME280;70137;56.482;9.154;2023-12-20T01:43:14;100053.16;;;4.13;99.86
80585;BME280;70137;56.482;9.154;2023-12-20T01:45:39;100049.94;;;4.11;99.89
80585;BME280;70137;56.482;9.154;2023-12-20T01:48:05;100041.56;;;4.09;100.00
80585;BME280;70137;56.482;9.154;2023-12-20T01:50:35;100037.41;;;4.08;99.75
80585;BME280;70137;56.482;9.154;2023-12-20T01:53:02;100034.16;;;4.06;99.71
80585;BME280;70137;56.482;9.154;2023-12-20T01:55:31;100021.34;;;4.06;99.51
80585;BME280;70137;56.482;9.154;2023-12-20T01:57:58;100023.06;;;4.05;99.29
80585;BME280;70137;56.482;9.154;2023-12-20T02:00:25;100012.00;;;4.05;99.08
80585;BME280;70137;56.482;9.154;2023-12-20T02:02:53;100003.38;;;4.06;99.93
80585;BME280;70137;56.482;9.154;2023-12-20T02:05:20;100000.00;;;4.05;100.00
80585;BME280;70137;56.482;9.154;2023-12-20T02:07:46;100002.56;;;4.05;99.71
80585;BME280;70137;56.482;9.154;2023-12-20T02:10:11;99999.19;;;4.05;100.00
80585;BME280;70137;56.482;9.154;2023-12-20T02:12:36;99995.94;;;4.02;99.60
80585;BME280;70137;56.482;9.154;2023-12-20T02:15:02;99986.50;;;4.03;99.82
80585;BME280;70137;56.482;9.154;2023-12-20T02:17:29;99989.06;;;4.03;98.78
80585;BME280;70137;56.482;9.154;2023-12-20T02:19:55;99984.75;;;4.03;100.00
80585;BME280;70137;56.482;9.154;2023-12-20T02:22:20;99984.75;;;4.03;100.00
80585;BME280;70137;56.482;9.154;2023-12-20T02:24:45;99988.25;;;4.02;99.09
80585;BME280;70137;56.482;9.154;2023-12-20T02:27:11;100013.91;;;4.02;99.43
80585;BME280;70137;56.482;9.154;2023-12-20T02:29:36;100001.88;;;4.03;100.00
80585;BME280;70137;56.482;9.154;2023-12-20T02:32:02;100004.44;;;4.03;99.78
80585;BME280;70137;56.482;9.154;2023-12-20T02:34:28;100000.94;;;4.04;99.50
80585;BME280;70137;56.482;9.154;2023-12-20T02:36:54;100001.88;;;4.03;99.38
80585;BME280;70137;56.482;9.154;2023-12-20T02:39:19;100000.28;;;4.02;99.44
80585;BME280;70137;56.482;9.154;2023-12-20T02:41:45;99994.47;;;4.00;99.07
80585;BME280;70137;56.482;9.154;2023-12-20T02:44:10;99993.81;;;3.98;99.91
80585;BME280;70137;56.482;9.154;2023-12-20T02:46:35;99992.06;;;3.98;99.61
80585;BME280;70137;56.482;9.154;2023-12-20T02:49:01;99983.56;;;3.98;99.96
80585;BME280;70137;56.482;9.154;2023-12-20T02:51:26;99971.69;;;3.97;99.92
80585;BME280;70137;56.482;9.154;2023-12-20T02:53:51;99965.88;;;3.95;99.60
80585;BME280;70137;56.482;9.154;2023-12-20T02:56:17;99961.69;;;3.94;99.37
80585;BME280;70137;56.482;9.154;2023-12-20T02:58:42;99966.97;;;3.92;100.00
80585;BME280;70137;56.482;9.154;2023-12-20T03:01:07;99964.53;;;3.91;99.55
80585;BME280;70137;56.482;9.154;2023-12-20T03:03:33;99956.19;;;3.89;99.00
80585;BME280;70137;56.482;9.154;2023-12-20T03:05:58;99952.16;;;3.86;98.66
80585;BME280;70137;56.482;9.154;2023-12-20T03:08:23;99954.03;;;3.84;99.06
80585;BME280;70137;56.482;9.154;2023-12-20T03:10:49;99943.09;;;3.82;98.79
80585;BME280;70137;56.482;9.154;2023-12-20T03:13:14;99947.44;;;3.82;99.14
80585;BME280;70137;56.482;9.154;2023-12-20T03:15:40;99948.38;;;3.81;98.09
80585;BME280;70137;56.482;9.154;2023-12-20T03:18:05;99942.44;;;3.80;98.79
80585;BME280;70137;56.482;9.154;2023-12-20T03:20:31;99933.94;;;3.80;98.56
80585;BME280;70137;56.482;9.154;2023-12-20T03:23:02;99939.72;;;3.82;98.71
80585;BME280;70137;56.482;9.154;2023-12-20T03:25:27;99933.00;;;3.81;98.69
80585;BME280;70137;56.482;9.154;2023-12-20T03:27:53;99926.25;;;3.80;98.73
80585;BME280;70137;56.482;9.154;2023-12-20T03:30:18;99927.88;;;3.81;98.24
80585;BME280;70137;56.482;9.154;2023-12-20T03:32:44;99913.44;;;3.80;97.85
80585;BME280;70137;56.482;9.154;2023-12-20T03:35:09;99910.88;;;3.80;97.22
80585;BME280;70137;56.482;9.154;2023-12-20T03:37:35;99907.34;;;3.81;97.16
80585;BME280;70137;56.482;9.154;2023-12-20T03:40:01;99908.97;;;3.82;96.92
80585;BME280;70137;56.482;9.154;2023-12-20T03:42:27;99940.53;;;3.82;96.58
80585;BME280;70137;56.482;9.154;2023-12-20T03:44:52;99962.66;;;3.83;96.77
80585;BME280;70137;56.482;9.154;2023-12-20T03:47:17;99973.22;;;3.80;96.63
80585;BME280;70137;56.482;9.154;2023-12-20T03:49:42;99995.47;;;3.80;97.38
80585;BME280;70137;56.482;9.154;2023-12-20T03:52:08;99983.47;;;3.70;97.99
80585;BME280;70137;56.482;9.154;2023-12-20T03:54:35;99974.72;;;3.54;97.10
80585;BME280;70137;56.482;9.154;2023-12-20T03:57:00;99958.03;;;3.40;96.62
80585;BME280;70137;56.482;9.154;2023-12-20T03:59:26;99938.47;;;3.29;97.40
80585;BME280;70137;56.482;9.154;2023-12-20T04:01:51;99932.28;;;3.22;97.76
80585;BME280;70137;56.482;9.154;2023-12-20T04:04:17;99928.22;;;3.20;97.54
80585;BME280;70137;56.482;9.154;2023-12-20T04:06:42;99922.31;;;3.19;97.76
80585;BME280;70137;56.482;9.154;2023-12-20T04:09:08;99919.03;;;3.17;98.26
80585;BME280;70137;56.482;9.154;2023-12-20T04:11:37;99910.41;;;3.18;98.13
80585;BME280;70137;56.482;9.154;2023-12-20T04:14:02;99903.00;;;3.15;98.50
80585;BME280;70137;56.482;9.154;2023-12-20T04:16:27;99907.19;;;3.16;98.51
80585;BME280;70137;56.482;9.154;2023-12-20T04:18:53;99901.25;;;3.15;99.18
80585;BME280;70137;56.482;9.154;2023-12-20T04:21:18;99907.34;;;3.14;98.75
80585;BME280;70137;56.482;9.154;2023-12-20T04:23:43;99894.53;;;3.14;98.78
80585;BME280;70137;56.482;9.154;2023-12-20T04:26:09;99878.06;;;3.17;99.01
80585;BME280;70137;56.482;9.154;2023-12-20T04:28:34;99867.03;;;3.16;99.09
80585;BME280;70137;56.482;9.154;2023-12-20T04:30:59;99890.75;;;3.19;99.83
80585;BME280;70137;56.482;9.154;2023-12-20T04:33:25;99877.97;;;3.19;99.71
80585;BME280;70137;56.482;9.154;2023-12-20T04:35:50;99883.59;;;3.22;99.27
80585;BME280;70137;56.482;9.154;2023-12-20T04:38:16;99879.28;;;3.23;99.62
80585;BME280;70137;56.482;9.154;2023-12-20T04:40:42;99877.41;;;3.25;100.00
80585;BME280;70137;56.482;9.154;2023-12-20T04:43:07;99865.25;;;3.27;100.00
80585;BME280;70137;56.482;9.154;2023-12-20T04:45:34;99864.19;;;3.29;100.00
80585;BME280;70137;56.482;9.154;2023-12-20T04:47:59;99859.72;;;3.31;100.00
80585;BME280;70137;56.482;9.154;2023-12-20T04:50:24;99854.31;;;3.34;100.00
80585;BME280;70137;56.482;9.154;2023-12-20T04:52:50;99843.00;;;3.37;100.00
80585;BME280;70137;56.482;9.154;2023-12-20T04:55:15;99841.13;;;3.39;100.00
80585;BME280;70137;56.482;9.154;2023-12-20T04:57:40;99842.88;;;3.38;100.00
80585;BME280;70137;56.482;9.154;2023-12-20T05:00:06;99844.63;;;3.38;99.59
80585;BME280;70137;56.482;9.154;2023-12-20T05:02:34;99827.50;;;3.38;99.69
80585;BME280;70137;56.482;9.154;2023-12-20T05:04:59;99826.81;;;3.36;100.00
80585;BME280;70137;56.482;9.154;2023-12-20T05:07:24;99825.34;;;3.34;100.00
80585;BME280;70137;56.482;9.154;2023-12-20T05:09:50;99824.97;;;3.29;100.00
80585;BME280;70137;56.482;9.154;2023-12-20T05:12:15;99820.09;;;3.26;99.82
80585;BME280;70137;56.482;9.154;2023-12-20T05:14:40;99818.78;;;3.22;99.84
80585;BME280;70137;56.482;9.154;2023-12-20T05:17:06;99810.69;;;3.16;99.30
80585;BME280;70137;56.482;9.154;2023-12-20T05:19:31;99822.00;;;3.14;99.52
80585;BME280;70137;56.482;9.154;2023-12-20T05:22:00;99813.66;;;3.12;98.98
80585;BME280;70137;56.482;9.154;2023-12-20T05:24:25;99815.69;;;3.08;98.93
80585;BME280;70137;56.482;9.154;2023-12-20T05:26:51;99799.94;;;3.03;99.62
80585;BME280;70137;56.482;9.154;2023-12-20T05:29:16;99803.44;;;3.02;98.80
80585;BME280;70137;56.482;9.154;2023-12-20T05:31:42;99799.28;;;3.01;99.28
80585;BME280;70137;56.482;9.154;2023-12-20T05:34:07;99802.09;;;2.98;98.77
80585;BME280;70137;56.482;9.154;2023-12-20T05:36:33;99798.72;;;2.98;99.32
80585;BME280;70137;56.482;9.154;2023-12-20T05:38:58;99795.63;;;2.94;99.73
80585;BME280;70137;56.482;9.154;2023-12-20T05:41:24;99793.22;;;2.93;98.79
80585;BME280;70137;56.482;9.154;2023-12-20T05:43:49;99794.03;;;2.93;99.85
80585;BME280;70137;56.482;9.154;2023-12-20T05:46:14;99790.78;;;2.91;99.60
80585;BME280;70137;56.482;9.154;2023-12-20T05:48:39;99796.16;;;2.88;99.41
80585;BME280;70137;56.482;9.154;2023-12-20T05:51:05;99792.13;;;2.85;99.40
80585;BME280;70137;56.482;9.154;2023-12-20T05:53:30;99774.66;;;2.81;99.24
80585;BME280;70137;56.482;9.154;2023-12-20T05:55:55;99777.06;;;2.82;99.30
80585;BME280;70137;56.482;9.154;2023-12-20T05:58:21;99776.25;;;2.82;99.91
80585;BME280;70137;56.482;9.154;2023-12-20T06:00:46;99781.38;;;2.82;100.00
80585;BME280;70137;56.482;9.154;2023-12-20T06:03:11;99779.88;;;2.79;99.53
80585;BME280;70137;56.482;9.154;2023-12-20T06:05:37;99776.50;;;2.79;99.74
80585;BME280;70137;56.482;9.154;2023-12-20T06:08:02;99773.28;;;2.77;100.00
80585;BME280;70137;56.482;9.154;2023-12-20T06:10:28;99779.22;;;2.77;100.00
80585;BME280;70137;56.482;9.154;2023-12-20T06:12:53;99765.59;;;2.77;100.00
80585;BME280;70137;56.482;9.154;2023-12-20T06:15:19;99768.44;;;2.74;99.79
80585;BME280;70137;56.482;9.154;2023-12-20T06:17:44;99762.53;;;2.73;100.00
80585;BME280;70137;56.482;9.154;2023-12-20T06:20:11;99754.84;;;2.73;100.00
80585;BME280;70137;56.482;9.154;2023-12-20T06:22:38;99742.06;;;2.73;100.00
80585;BME280;70137;56.482;9.154;2023-12-20T06:25:03;99754.84;;;2.73;100.00
80585;BME280;70137;56.482;9.154;2023-12-20T06:27:29;99750.69;;;2.72;100.00
80585;BME280;70137;56.482;9.154;2023-12-20T06:29:54;99740.44;;;2.72;100.00
80585;BME280;70137;56.482;9.154;2023-12-20T06:32:19;99747.16;;;2.73;100.00
80585;BME280;70137;56.482;9.154;2023-12-20T06:34:45;99729.09;;;2.75;100.00
80585;BME280;70137;56.482;9.154;2023-12-20T06:37:10;99737.59;;;2.75;100.00
80585;BME280;70137;56.482;9.154;2023-12-20T06:39:35;99737.44;;;2.77;100.00
80585;BME280;70137;56.482;9.154;2023-12-20T06:42:02;99738.25;;;2.77;100.00
80585;BME280;70137;56.482;9.154;2023-12-20T06:44:27;99737.19;;;2.80;100.00
80585;BME280;70137;56.482;9.154;2023-12-20T06:46:52;99733.69;;;2.81;100.00
80585;BME280;70137;56.482;9.154;2023-12-20T06:49:18;99738.53;;;2.84;100.00
80585;BME280;70137;56.482;9.154;2023-12-20T06:51:44;99739.19;;;2.86;100.00
80585;BME280;70137;56.482;9.154;2023-12-20T06:54:09;99737.28;;;2.88;100.00
80585;BME280;70137;56.482;9.154;2023-12-20T06:56:34;99748.22;;;2.90;100.00
80585;BME280;70137;56.482;9.154;2023-12-20T06:59:00;99758.31;;;2.92;100.00
80585;BME280;70137;56.482;9.154;2023-12-20T07:01:25;99764.91;;;2.94;100.00
80585;BME280;70137;56.482;9.154;2023-12-20T07:03:50;99753.19;;;2.92;100.00
80585;BME280;70137;56.482;9.154;2023-12-20T07:06:16;99753.59;;;2.87;100.00
80585;BME280;70137;56.482;9.154;2023-12-20T07:08:42;99741.88;;;2.84;100.00
80585;BME280;70137;56.482;9.154;2023-12-20T07:11:07;99733.69;;;2.81;100.00
80585;BME280;70137;56.482;9.154;2023-12-20T07:13:33;99742.56;;;2.77;100.00
80585;BME280;70137;56.482;9.154;2023-12-20T07:15:58;99736.13;;;2.73;100.00
80585;BME280;70137;56.482;9.154;2023-12-20T07:18:24;99731.81;;;2.73;100.00
80585;BME280;70137;56.482;9.154;2023-12-20T07:20:49;99744.47;;;2.75;100.00
80585;BME280;70137;56.482;9.154;2023-12-20T07:23:14;99739.34;;;2.75;99.87
80585;BME280;70137;56.482;9.154;2023-12-20T07:25:40;99743.53;;;2.76;100.00
80585;BME280;70137;56.482;9.154;2023-12-20T07:28:06;99741.63;;;2.78;100.00
80585;BME280;70137;56.482;9.154;2023-12-20T07:30:31;99738.00;;;2.80;100.00
80585;BME280;70137;56.482;9.154;2023-12-20T07:32:56;99759.81;;;2.84;100.00
80585;BME280;70137;56.482;9.154;2023-12-20T07:35:23;99759.53;;;2.87;99.99
80585;BME280;70137;56.482;9.154;2023-12-20T07:37:48;99761.94;;;2.89;100.00
80585;BME280;70137;56.482;9.154;2023-12-20T07:40:14;99759.38;;;2.89;100.00
80585;BME280;70137;56.482;9.154;2023-12-20T07:42:42;99755.75;;;2.92;100.00
80585;BME280;70137;56.482;9.154;2023-12-20T07:45:07;99760.59;;;2.95;100.00
80585;BME280;70137;56.482;9.154;2023-12-20T07:47:32;99761.25;;;2.97;100.00
80585;BME280;70137;56.482;9.154;2023-12-20T07:49:58;99752.53;;;2.99;100.00
80585;BME280;70137;56.482;9.154;2023-12-20T07:52:23;99767.88;;;2.99;100.00
80585;BME280;70137;56.482;9.154;2023-12-20T07:54:48;99768.69;;;3.00;100.00
80585;BME280;70137;56.482;9.154;2023-12-20T07:57:14;99764.38;;;3.00;100.00
80585;BME280;70137;56.482;9.154;2023-12-20T07:59:39;99768.53;;;3.01;100.00
80585;BME280;70137;56.482;9.154;2023-12-20T08:02:04;99755.75;;;3.01;100.00
80585;BME280;70137;56.482;9.154;2023-12-20T08:04:30;99766.78;;;3.02;100.00
80585;BME280;70137;56.482;9.154;2023-12-20T08:06:56;99770.31;;;3.01;100.00
80585;BME280;70137;56.482;9.154;2023-12-20T08:09:21;99770.44;;;2.99;100.00
80585;BME280;70137;56.482;9.154;2023-12-20T08:11:47;99757.91;;;2.96;100.00
80585;BME280;70137;56.482;9.154;2023-12-20T08:14:13;99758.69;;;2.97;100.00
80585;BME280;70137;56.482;9.154;2023-12-20T08:16:39;99754.25;;;2.99;100.00
80585;BME280;70137;56.482;9.154;2023-12-20T08:19:04;99754.13;;;3.00;100.00
80585;BME280;70137;56.482;9.154;2023-12-20T08:21:30;99750.63;;;3.01;100.00
80585;BME280;70137;56.482;9.154;2023-12-20T08:23:55;99744.84;;;2.99;100.00
80585;BME280;70137;56.482;9.154;2023-12-20T08:26:21;99749.00;;;3.00;100.00
80585;BME280;70137;56.482;9.154;2023-12-20T08:28:48;99749.00;;;3.00;100.00
80585;BME280;70137;56.482;9.154;2023-12-20T08:31:17;99740.63;;;2.98;100.00
80585;BME280;70137;56.482;9.154;2023-12-20T08:33:44;99742.28;;;2.99;100.00
80585;BME280;70137;56.482;9.154;2023-12-20T08:36:10;99742.28;;;2.99;100.00
80585;BME280;70137;56.482;9.154;2023-12-20T08:38:36;99749.00;;;3.00;100.00
80585;BME280;70137;56.482;9.154;2023-12-20T08:41:01;99748.72;;;3.03;100.00
80585;BME280;70137;56.482;9.154;2023-12-20T08:43:28;99748.44;;;3.06;100.00
80585;BME280;70137;56.482;9.154;2023-12-20T08:45:54;99751.66;;;3.08;100.00
80585;BME280;70137;56.482;9.154;2023-12-20T08:48:19;99748.25;;;3.17;100.00
80585;BME280;70137;56.482;9.154;2023-12-20T08:50:44;99745.81;;;3.26;100.00
80585;BME280;70137;56.482;9.154;2023-12-20T08:53:11;99747.16;;;3.30;100.00
80585;BME280;70137;56.482;9.154;2023-12-20T08:55:36;99741.09;;;3.31;100.00
80585;BME280;70137;56.482;9.154;2023-12-20T08:58:02;99729.75;;;3.33;100.00
80585;BME280;70137;56.482;9.154;2023-12-20T09:00:27;99732.16;;;3.35;100.00
80585;BME280;70137;56.482;9.154;2023-12-20T09:02:54;99743.63;;;3.40;100.00
80585;BME280;70137;56.482;9.154;2023-12-20T09:05:20;99757.75;;;3.44;99.89
80585;BME280;70137;56.482;9.154;2023-12-20T09:07:45;99754.78;;;3.49;100.00
80585;BME280;70137;56.482;9.154;2023-12-20T09:10:10;99754.50;;;3.52;100.00
80585;BME280;70137;56.482;9.154;2023-12-20T09:12:36;99758.66;;;3.53;100.00
80585;BME280;70137;56.482;9.154;2023-12-20T09:15:05;99775.66;;;3.54;99.55
80585;BME280;70137;56.482;9.154;2023-12-20T09:17:30;99770.53;;;3.54;99.90
80585;BME280;70137;56.482;9.154;2023-12-20T09:19:56;99766.88;;;3.57;99.48
80585;BME280;70137;56.482;9.154;2023-12-20T09:22:21;99769.81;;;3.62;99.84
80585;BME280;70137;56.482;9.154;2023-12-20T09:24:47;99768.72;;;3.64;99.07
80585;BME280;70137;56.482;9.154;2023-12-20T09:27:12;99778.31;;;3.62;99.27
80585;BME280;70137;56.482;9.154;2023-12-20T09:29:37;99776.03;;;3.59;99.06
80585;BME280;70137;56.482;9.154;2023-12-20T09:32:03;99792.63;;;3.55;99.02
80585;BME280;70137;56.482;9.154;2023-12-20T09:34:28;99781.06;;;3.51;98.36
80585;BME280;70137;56.482;9.154;2023-12-20T09:36:54;99775.44;;;3.48;97.79
80585;BME280;70137;56.482;9.154;2023-12-20T09:39:20;99788.63;;;3.43;97.80
80585;BME280;70137;56.482;9.154;2023-12-20T09:42:02;99784.22;;;3.35;98.19
80585;BME280;70137;56.482;9.154;2023-12-20T09:44:28;99779.53;;;3.31;98.03
80585;BME280;70137;56.482;9.154;2023-12-20T09:46:56;99786.53;;;3.29;97.87
80585;BME280;70137;56.482;9.154;2023-12-20T09:49:22;99786.78;;;3.26;97.59
80585;BME280;70137;56.482;9.154;2023-12-20T09:51:48;99792.06;;;3.24;98.24
80585;BME280;70137;56.482;9.154;2023-12-20T09:54:17;99794.25;;;3.19;98.17
80585;BME280;70137;56.482;9.154;2023-12-20T09:56:42;99798.03;;;3.15;97.77
80585;BME280;70137;56.482;9.154;2023-12-20T09:59:08;99794.28;;;3.09;98.18
80585;BME280;70137;56.482;9.154;2023-12-20T10:01:34;99801.53;;;3.04;97.46
80585;BME280;70137;56.482;9.154;2023-12-20T10:04:00;99800.88;;;3.02;97.51
80585;BME280;70137;56.482;9.154;2023-12-20T10:06:32;99799.94;;;3.03;98.26
80585;BME280;70137;56.482;9.154;2023-12-20T10:08:57;99803.44;;;3.02;98.57
80585;BME280;70137;56.482;9.154;2023-12-20T10:11:22;99801.81;;;3.01;97.80
80585;BME280;70137;56.482;9.154;2023-12-20T10:13:48;99801.81;;;3.01;97.74
80585;BME280;70137;56.482;9.154;2023-12-20T10:16:14;99799.28;;;3.01;98.45
80585;BME280;70137;56.482;9.154;2023-12-20T10:18:39;99797.75;;;3.08;98.71
80585;BME280;70137;56.482;9.154;2023-12-20T10:21:05;99793.69;;;3.15;98.21
80585;BME280;70137;56.482;9.154;2023-12-20T10:23:31;99783.06;;;3.20;97.70
80585;BME280;70137;56.482;9.154;2023-12-20T10:25:59;99781.69;;;3.26;98.71
80585;BME280;70137;56.482;9.154;2023-12-20T10:28:25;99786.53;;;3.29;97.95
80585;BME280;70137;56.482;9.154;2023-12-20T10:30:54;99787.22;;;3.31;98.36
80585;BME280;70137;56.482;9.154;2023-12-20T10:33:26;99778.56;;;3.32;98.55
80585;BME280;70137;56.482;9.154;2023-12-20T10:35:52;99780.03;;;3.34;98.61
80585;BME280;70137;56.482;9.154;2023-12-20T10:38:18;99784.47;;;3.42;98.46
80585;BME280;70137;56.482;9.154;2023-12-20T10:40:45;99785.53;;;3.49;99.02
80585;BME280;70137;56.482;9.154;2023-12-20T10:43:11;99781.03;;;3.61;98.19
80585;BME280;70137;56.482;9.154;2023-12-20T10:45:36;99777.47;;;3.71;99.28
80585;BME280;70137;56.482;9.154;2023-12-20T10:48:03;99779.41;;;3.87;99.04
80585;BME280;70137;56.482;9.154;2023-12-20T10:50:29;99771.97;;;4.12;99.03
80585;BME280;70137;56.482;9.154;2023-12-20T10:52:55;99764.69;;;4.35;99.31
80585;BME280;70137;56.482;9.154;2023-12-20T10:55:22;99777.94;;;4.48;99.31
80585;BME280;70137;56.482;9.154;2023-12-20T10:57:49;99776.81;;;4.50;99.43
80585;BME280;70137;56.482;9.154;2023-12-20T11:00:17;99773.97;;;4.53;99.66
80585;BME280;70137;56.482;9.154;2023-12-20T11:02:43;99791.41;;;4.50;99.34
80585;BME280;70137;56.482;9.154;2023-12-20T11:05:46;99775.69;;;4.45;98.70
80585;BME280;70137;56.482;9.154;2023-12-20T11:08:32;99785.56;;;4.40;98.86
80585;BME280;70137;56.482;9.154;2023-12-20T11:11:04;99785.06;;;4.36;98.75
80585;BME280;70137;56.482;9.154;2023-12-20T11:13:35;99782.91;;;4.31;98.63
80585;BME280;70137;56.482;9.154;2023-12-20T11:16:03;99790.25;;;4.26;97.67
80585;BME280;70137;56.482;9.154;2023-12-20T11:18:29;99802.69;;;4.21;97.22
80585;BME280;70137;56.482;9.154;2023-12-20T11:20:55;99798.44;;;4.12;94.99
80585;BME280;70137;56.482;9.154;2023-12-20T11:23:25;99799.06;;;3.96;94.01
80585;BME280;70137;56.482;9.154;2023-12-20T11:25:56;99785.91;;;3.82;93.14
80585;BME280;70137;56.482;9.154;2023-12-20T11:28:24;99778.03;;;3.65;93.11
80585;BME280;70137;56.482;9.154;2023-12-20T11:30:52;99778.78;;;3.48;92.91
80585;BME280;70137;56.482;9.154;2023-12-20T11:33:25;99774.50;;;3.39;92.62
80585;BME280;70137;56.482;9.154;2023-12-20T11:35:51;99790.13;;;3.36;91.97
80585;BME280;70137;56.482;9.154;2023-12-20T11:38:20;99800.53;;;3.34;92.10
80585;BME280;70137;56.482;9.154;2023-12-20T11:40:48;99810.50;;;3.37;92.37
80585;BME280;70137;56.482;9.154;2023-12-20T11:43:29;99781.66;;;3.35;91.53
80585;BME280;70137;56.482;9.154;2023-12-20T11:45:54;99786.25;;;3.32;92.07
80585;BME280;70137;56.482;9.154;2023-12-20T11:48:20;99787.22;;;3.31;92.04
80585;BME280;70137;56.482;9.154;2023-12-20T11:50:46;99784.25;;;3.26;90.86
80585;BME280;70137;56.482;9.154;2023-12-20T11:53:11;99776.03;;;3.22;90.33
80585;BME280;70137;56.482;9.154;2023-12-20T11:55:37;99762.44;;;3.22;90.38
80585;BME280;70137;56.482;9.154;2023-12-20T11:58:02;99768.63;;;3.19;90.08
80585;BME280;70137;56.482;9.154;2023-12-20T12:00:28;99760.66;;;3.22;89.67
80585;BME280;70137;56.482;9.154;2023-12-20T12:03:00;99758.38;;;3.29;90.47
80585;BME280;70137;56.482;9.154;2023-12-20T12:05:28;99759.41;;;3.36;90.67
80585;BME280;70137;56.482;9.154;2023-12-20T12:07:53;99746.41;;;3.47;90.21
80585;BME280;70137;56.482;9.154;2023-12-20T12:10:18;99752.03;;;3.60;90.61
80585;BME280;70137;56.482;9.154;2023-12-20T12:12:44;99745.91;;;3.71;89.94
80585;BME280;70137;56.482;9.154;2023-12-20T12:15:09;99746.81;;;3.80;90.41
80585;BME280;70137;56.482;9.154;2023-12-20T12:17:35;99745.00;;;3.90;89.42
80585;BME280;70137;56.482;9.154;2023-12-20T12:20:05;99749.25;;;3.99;88.65
80585;BME280;70137;56.482;9.154;2023-12-20T12:22:30;99741.91;;;4.04;89.33
80585;BME280;70137;56.482;9.154;2023-12-20T12:24:59;99748.09;;;4.11;89.44
80585;BME280;70137;56.482;9.154;2023-12-20T12:27:24;99746.56;;;4.18;89.10
80585;BME280;70137;56.482;9.154;2023-12-20T12:30:04;99751.63;;;4.28;89.09
80585;BME280;70137;56.482;9.154;2023-12-20T12:32:32;99752.50;;;4.37;88.97
80585;BME280;70137;56.482;9.154;2023-12-20T12:34:57;99752.84;;;4.42;88.82
80585;BME280;70137;56.482;9.154;2023-12-20T12:37:23;99753.50;;;4.44;88.67
80585;BME280;70137;56.482;9.154;2023-12-20T12:39:49;99751.41;;;4.39;87.86
80585;BME280;70137;56.482;9.154;2023-12-20T12:42:15;99755.06;;;4.37;87.86
80585;BME280;70137;56.482;9.154;2023-12-20T12:44:40;99763.03;;;4.34;87.23
80585;BME280;70137;56.482;9.154;2023-12-20T12:47:05;99759.16;;;4.29;86.53
80585;BME280;70137;56.482;9.154;2023-12-20T12:49:32;99761.06;;;4.27;88.14
80585;BME280;70137;56.482;9.154;2023-12-20T12:51:57;99753.22;;;4.29;87.26
80585;BME280;70137;56.482;9.154;2023-12-20T12:54:23;99747.38;;;4.37;86.99
80585;BME280;70137;56.482;9.154;2023-12-20T12:56:49;99767.59;;;4.40;87.67
80585;BME280;70137;56.482;9.154;2023-12-20T12:59:15;99766.94;;;4.38;87.80